Air Quality Table

TIMESTAMP NO2 SO2 O3 PM10 PM2.5 TEMP HUM AIRPRES WS WD NO
2022-01-24 17:00 15.33 µg/m3 1.81 µg/m3 69.1 µg/m3 21.8 µg/m3 8.84 µg/m3 12.31 °C 65.19 % 1,017.96 mbar 3.47 m/s 189.5 Deg 5.09 µg/m3
2022-01-24 09:00 35.09 µg/m3 2.02 µg/m3 45.08 µg/m3 15.66 µg/m3 11.19 µg/m3 10.38 °C 60.82 % 1,018.89 mbar 1.64 m/s 169.24 Deg 15.06 µg/m3
2022-01-24 01:00 21.25 µg/m3 1.79 µg/m3 60.89 µg/m3 18.74 µg/m3 3.63 µg/m3 11.24 °C 64.36 % 1,019.69 mbar 1.7 m/s 283.73 Deg 1.9 µg/m3
2022-01-23 17:00 8.74 µg/m3 1.86 µg/m3 77.07 µg/m3 11.54 µg/m3 7.8 µg/m3 12.74 °C 52.67 % 1,020.60 mbar 2.84 m/s 153.4 Deg 1.79 µg/m3
2022-01-23 09:00 7.69 µg/m3 1.55 µg/m3 69.19 µg/m3 14.56 µg/m3 12.41 µg/m3 10.56 °C 73.06 % 1,019.67 mbar 2.23 m/s 40.42 Deg 0.67 µg/m3
2022-01-23 01:00 28.19 µg/m3 1.65 µg/m3 44.08 µg/m3 29.43 µg/m3 12.06 µg/m3 10.93 °C 90.22 % 1,017.96 mbar 1.14 m/s 177.86 Deg 6.09 µg/m3
2022-01-22 17:00 15.06 µg/m3 1.51 µg/m3 67.73 µg/m3 19.72 µg/m3 10.47 µg/m3 12.82 °C 72.72 % 1,016.28 mbar 2.65 m/s 138.39 Deg 4.09 µg/m3
2022-01-22 09:00 17.51 µg/m3 1.44 µg/m3 60.31 µg/m3 12.8 µg/m3 11.1 µg/m3 10.88 °C 81.21 % 1,015.15 mbar 2 m/s 316.18 Deg 2.53 µg/m3
2022-01-22 01:00 25.43 µg/m3 1.56 µg/m3 54.23 µg/m3 25.33 µg/m3 9.56 µg/m3 11.5 °C 79.33 % 1,015.42 mbar 1.6 m/s 304.74 Deg 2.31 µg/m3
2022-01-21 17:00 18.98 µg/m3 1.62 µg/m3 73.02 µg/m3 27.73 µg/m3 9.67 µg/m3 14.11 °C 62.81 % 1,014.98 mbar 3.33 m/s 302.7 Deg 4.69 µg/m3
2022-01-21 09:00 27.37 µg/m3 1.62 µg/m3 66.38 µg/m3 16.29 µg/m3 14.27 µg/m3 11.36 °C 73.61 % 1,015.52 mbar 1.63 m/s 283.79 Deg 7.39 µg/m3
2022-01-21 01:00 26.97 µg/m3 1.57 µg/m3 59.35 µg/m3 25.39 µg/m3 3.35 µg/m3 12.09 °C 75.16 % 1,017.28 mbar 1.48 m/s 284.73 Deg 2.14 µg/m3
2022-01-20 17:00 17.07 µg/m3 1.35 µg/m3 70.27 µg/m3 17.56 µg/m3 8.22 µg/m3 14.23 °C 70.66 % 1,018.76 mbar 1.92 m/s 273.02 Deg 3.11 µg/m3
2022-01-20 09:00 26.52 µg/m3 1.48 µg/m3 58.96 µg/m3 9.42 µg/m3 7.37 µg/m3 12.02 °C 87.6 % 1,020.91 mbar 1.58 m/s 216.09 Deg 4.4 µg/m3
2022-01-20 01:00 10.8 µg/m3 1.34 µg/m3 69.89 µg/m3 12.66 µg/m3 4.95 µg/m3 12.34 °C 87.1 % 1,023.00 mbar 1.62 m/s 191.23 Deg 0.3 µg/m3
2022-01-19 17:00 4 µg/m3 1.48 µg/m3 80.73 µg/m3 16.09 µg/m3 12.62 µg/m3 14.13 °C 69.33 % 1,023.83 mbar 2.91 m/s 153.73 Deg 0.6 µg/m3
2022-01-19 09:00 13.86 µg/m3 1.54 µg/m3 58.27 µg/m3 17.73 µg/m3 8.31 µg/m3 11.85 °C 78.86 % 1,024.02 mbar 1.5 m/s 230.85 Deg 1.13 µg/m3
2022-01-19 01:00 43.25 µg/m3 1.72 µg/m3 37.79 µg/m3 36.32 µg/m3 11.71 µg/m3 11.62 °C 77.77 % 1,024.33 mbar 1.63 m/s 303.12 Deg 6.04 µg/m3
2022-01-18 17:00 18.1 µg/m3 1.48 µg/m3 72.95 µg/m3 26.28 µg/m3 5.83 µg/m3 14.05 °C 66.68 % 1,022.70 mbar 3.08 m/s 207.5 Deg 5.83 µg/m3
2022-01-18 09:00 32.09 µg/m3 1.6 µg/m3 43.9 µg/m3 17.99 µg/m3 8.84 µg/m3 11.1 °C 85.64 % 1,020.67 mbar 1.76 m/s 314.33 Deg 7.89 µg/m3

It is to be noted that the data is provisional and subject to quality assurance procedures. For validated data kindly refer your request to contact.air@era.org.mt